Archival Weather

Snohomish County (Paine Fld)

Everett, Washington (KPAE)

Report from: Saturday, November 11, 2023 4:53 AM PST
Current time: Sunday, June 16, 2024 11:39 PM PDT

Current weather – Weather history – Daily summaries
Weather forecast

Present weatherRain
Temperature10.0°C (50.0°F)
Wind chill6.2°C (43.1°F)
Dew point7.2°C (45.0°F)
Winds 20 kts (10.3 m/s, 23 mph) South (190°)
Wind gusts 32 kts (16.5 m/s, 36.8 mph)
Peak wind 39 kts (20.1 m/s, 44.9 mph) South (180°) at 11:59
Visibility6 mi. (9.7 km)
Clouds Ceiling: Overcast 2,000 ft. (610 m)
Altimeter29.71 in.Hg (1006 mB)
Precipitiation0.08 in. (2 mm)
Precip. events Rain began 12:17 PM
Relative humidity83 %
Density altitude-212 ft. (-65 m)
Sea-level pressure100.6 kPa (1006 mB, 29.71 in.Hg)
Remarks Fully automated report
Automated weather observing station with precipitation discriminator
Flight conditions Marginal Visual Meteorological Conditions
Raw dataKPAE 111253Z AUTO 19020G32KT 6SM RA OVC020 10/07 A2971 RMK AO2 PK WND 18039/1159 RAB17 SLP062 P0008 T01000072
An error has occurred. This application may no longer respond until reloaded. Reload 🗙